Unalaska, Alaska
Current Conditions -  °F | °C
As of 8:56 PM on Thursday 30 Oct 2014 (Local Time) from PADU Reporting Station
Overcast Overcast  
Wind Chill: 52°   Ceiling: 4400
Heat Index: 52°   Visibility: 10mi
Dew Point: 45°   Wind: 12mph
Humidity: 77%   Direction: 180°S
Pressure: 29.11"   Gusts: 18mph
Location:  53.87°N, 166.54°W
Report Text: PADU 310456Z AUTO 18010G16KT 10SM SCT033 BKN044 OVC055 11/07 A2911 RMK AO2 RAE56 PRESFR SLP861 P0003 T01110072
Loading
Personal Weather Stations






























Interactive Weather Map
Tropical Storm Tracking
New forecast layout! Learn more

10-Day Weather Forecast

Advertisements
Track Severe Weather on mobile